createdAt,value
2022-12-14T00:02:04.827Z,98.27
2022-12-14T00:05:11.894Z,98.18
2022-12-14T00:08:19.752Z,98.06
2022-12-14T00:11:27.323Z,98.36
2022-12-14T00:14:34.515Z,98.22
2022-12-14T00:17:41.272Z,97.83
2022-12-14T00:20:48.002Z,97.32
2022-12-14T00:23:55.543Z,97.05
2022-12-14T00:27:02.289Z,97.06
2022-12-14T00:30:11.014Z,96.87
2022-12-14T00:33:17.843Z,96.99
2022-12-14T00:36:26.012Z,97.18
2022-12-14T00:39:32.955Z,97.22
2022-12-14T00:42:39.793Z,97.14
2022-12-14T00:45:47.856Z,97.08
2022-12-14T00:48:54.805Z,97.17
2022-12-14T00:52:02.132Z,97.14
2022-12-14T00:55:10.174Z,97.20
2022-12-14T00:58:18.769Z,97.38
2022-12-14T01:01:25.664Z,97.51
2022-12-14T01:04:32.781Z,97.63
2022-12-14T01:07:39.554Z,97.59
2022-12-14T01:10:46.239Z,97.66
2022-12-14T01:13:53.021Z,97.74
2022-12-14T01:16:59.980Z,97.89
2022-12-14T01:20:07.932Z,98.28
2022-12-14T01:23:15.709Z,98.57
2022-12-14T01:26:24.021Z,98.73
2022-12-14T01:29:31.037Z,98.86
2022-12-14T01:32:38.265Z,98.95
2022-12-14T01:35:45.290Z,98.76
2022-12-14T01:38:56.660Z,99.07
2022-12-14T01:42:03.751Z,99.23
2022-12-14T01:45:21.735Z,99.18
2022-12-14T01:48:28.682Z,99.22
2022-12-14T01:51:38.274Z,99.33
2022-12-14T01:54:50.195Z,99.68
2022-12-14T01:58:03.316Z,99.75
2022-12-14T02:01:11.307Z,99.65
2022-12-14T02:04:20.992Z,99.49
2022-12-14T02:07:27.948Z,99.37
2022-12-14T02:10:35.370Z,99.43
2022-12-14T02:13:43.477Z,99.43
2022-12-14T02:16:54.660Z,99.32
2022-12-14T02:20:03.922Z,99.25
2022-12-14T02:23:38.581Z,99.44
2022-12-14T02:27:05.607Z,99.61
2022-12-14T02:30:16.022Z,99.46
2022-12-14T02:33:33.550Z,99.50
2022-12-14T02:36:47.713Z,99.39
2022-12-14T02:40:03.085Z,99.16
2022-12-14T02:43:19.752Z,99.37
2022-12-14T02:46:34.501Z,99.53
2022-12-14T02:49:53.746Z,99.46
2022-12-14T02:53:09.464Z,99.68
2022-12-14T02:56:23.756Z,99.84
2022-12-14T02:59:33.688Z,99.87
2022-12-14T03:02:43.980Z,99.82
2022-12-14T03:05:59.747Z,99.57
2022-12-14T03:09:11.102Z,99.39
2022-12-14T03:12:19.157Z,99.54
2022-12-14T03:15:28.754Z,99.68
2022-12-14T03:18:37.654Z,99.68
2022-12-14T03:21:48.656Z,99.75
2022-12-14T03:24:59.956Z,99.84
2022-12-14T03:28:13.242Z,99.93
2022-12-14T03:31:26.811Z,99.82
2022-12-14T03:34:37.111Z,99.95
2022-12-14T03:37:52.950Z,100.00
2022-12-14T03:41:10.376Z,100.00
2022-12-14T03:44:25.205Z,100.00
2022-12-14T03:47:51.351Z,100.00
2022-12-14T03:51:06.992Z,100.00
2022-12-14T03:54:19.407Z,100.00
2022-12-14T03:57:42.937Z,100.00
2022-12-14T04:00:58.099Z,100.00
2022-12-14T04:04:12.004Z,100.00
2022-12-14T04:07:24.970Z,100.00
2022-12-14T04:10:55.090Z,100.00
2022-12-14T04:14:30.601Z,99.96
2022-12-14T04:17:58.228Z,99.85
2022-12-14T04:21:12.594Z,99.62
2022-12-14T04:24:46.001Z,99.69
2022-12-14T04:27:57.583Z,99.74
2022-12-14T04:31:09.176Z,99.77
2022-12-14T04:34:18.468Z,99.78
2022-12-14T04:37:28.922Z,99.66
2022-12-14T04:40:40.922Z,99.85
2022-12-14T04:43:51.476Z,99.82
2022-12-14T04:47:00.503Z,99.72
2022-12-14T04:50:14.189Z,99.79
2022-12-14T04:53:26.812Z,99.69
2022-12-14T04:56:39.998Z,99.69
2022-12-14T04:59:48.412Z,99.74
2022-12-14T05:03:20.567Z,99.63
2022-12-14T05:06:34.059Z,99.93
2022-12-14T05:09:52.222Z,99.96
2022-12-14T05:13:04.470Z,99.93
2022-12-14T05:16:12.531Z,99.99
2022-12-14T05:19:19.439Z,100.00
2022-12-14T05:22:26.118Z,100.00
2022-12-14T05:25:32.785Z,100.00
2022-12-14T05:28:39.541Z,100.00
2022-12-14T05:31:49.037Z,100.00
2022-12-14T05:34:56.713Z,100.00
2022-12-14T05:38:03.482Z,100.00
2022-12-14T05:41:10.226Z,100.00
2022-12-14T05:44:17.107Z,100.00
2022-12-14T05:47:24.130Z,100.00
2022-12-14T05:50:31.412Z,100.00
2022-12-14T05:53:39.367Z,100.00
2022-12-14T05:56:46.224Z,100.00
2022-12-14T05:59:52.982Z,100.00
2022-12-14T06:03:00.049Z,100.00
2022-12-14T06:06:09.137Z,100.00
2022-12-14T06:09:17.957Z,100.00
2022-12-14T06:12:24.938Z,100.00
2022-12-14T06:15:34.059Z,100.00
2022-12-14T06:18:43.886Z,100.00
2022-12-14T06:21:48.926Z,100.00
2022-12-14T06:24:56.492Z,100.00
2022-12-14T06:28:03.360Z,100.00
2022-12-14T06:31:15.722Z,100.00
2022-12-14T06:34:28.171Z,100.00
2022-12-14T06:37:35.549Z,100.00
2022-12-14T06:40:42.268Z,100.00
2022-12-14T06:43:49.836Z,100.00
2022-12-14T06:46:56.827Z,100.00
2022-12-14T06:50:03.899Z,100.00
2022-12-14T06:53:14.653Z,100.00
2022-12-14T06:56:22.497Z,100.00
2022-12-14T06:59:30.469Z,100.00
2022-12-14T07:02:38.118Z,100.00
2022-12-14T07:05:48.996Z,100.00
2022-12-14T07:08:57.894Z,100.00
2022-12-14T07:12:04.739Z,100.00
2022-12-14T07:15:12.663Z,100.00
2022-12-14T07:18:19.913Z,100.00
2022-12-14T07:21:27.555Z,100.00
2022-12-14T07:24:34.652Z,100.00
2022-12-14T07:27:41.422Z,100.00
2022-12-14T07:30:48.420Z,100.00
2022-12-14T07:33:57.846Z,100.00
2022-12-14T07:37:03.146Z,100.00
2022-12-14T07:40:12.555Z,100.00
2022-12-14T07:43:19.488Z,100.00
2022-12-14T07:46:28.638Z,100.00
2022-12-14T07:49:35.424Z,100.00
2022-12-14T07:52:42.075Z,100.00
2022-12-14T07:55:48.882Z,100.00
2022-12-14T07:58:57.568Z,100.00
2022-12-14T08:02:04.636Z,100.00
2022-12-14T08:05:12.973Z,100.00
2022-12-14T08:08:19.718Z,99.92
2022-12-14T08:11:26.718Z,99.89
2022-12-14T08:14:33.697Z,99.79
2022-12-14T08:17:40.470Z,99.68
2022-12-14T08:20:53.350Z,99.60
2022-12-14T08:24:00.677Z,99.58
2022-12-14T08:27:07.558Z,99.55
2022-12-14T08:30:15.281Z,99.44
2022-12-14T08:33:23.054Z,99.50
2022-12-14T08:36:34.087Z,99.49
2022-12-14T08:39:43.582Z,99.40
2022-12-14T08:42:56.990Z,99.43
2022-12-14T08:46:05.885Z,99.28
2022-12-14T08:49:13.548Z,99.30
2022-12-14T08:52:21.579Z,99.05
2022-12-14T08:55:32.498Z,98.89
2022-12-14T08:58:43.321Z,98.77
2022-12-14T09:01:50.401Z,98.59
2022-12-14T09:04:57.836Z,98.54
2022-12-14T09:08:05.214Z,98.31
2022-12-14T09:11:14.443Z,97.93
2022-12-14T09:14:21.460Z,97.61
2022-12-14T09:17:28.335Z,97.22
2022-12-14T09:20:34.974Z,97.11
2022-12-14T09:23:43.183Z,97.41
2022-12-14T09:26:49.999Z,97.45
2022-12-14T09:29:58.468Z,97.69
2022-12-14T09:33:05.412Z,97.49
2022-12-14T09:36:15.351Z,97.31
2022-12-14T09:39:22.241Z,97.22
2022-12-14T09:42:50.735Z,96.82
2022-12-14T09:46:06.984Z,96.12
2022-12-14T09:49:26.198Z,95.99
2022-12-14T09:52:43.074Z,96.11
2022-12-14T09:55:52.246Z,95.85
2022-12-14T09:59:02.156Z,95.23
2022-12-14T10:02:33.641Z,94.89
2022-12-14T10:05:54.184Z,94.54
2022-12-14T10:09:10.631Z,94.20
2022-12-14T10:12:34.082Z,93.81
2022-12-14T10:15:51.603Z,94.01
2022-12-14T10:19:11.688Z,93.89
2022-12-14T10:22:22.126Z,93.53
2022-12-14T10:25:32.278Z,93.18
2022-12-14T10:28:47.584Z,93.03
2022-12-14T10:32:03.018Z,93.20
2022-12-14T10:35:17.374Z,92.83
2022-12-14T10:38:33.727Z,92.44
2022-12-14T10:41:49.772Z,91.80
2022-12-14T10:48:46.514Z,91.58
2022-12-14T10:51:59.076Z,91.28
2022-12-14T10:55:13.729Z,90.81
2022-12-14T10:58:20.475Z,90.45
2022-12-14T11:01:28.681Z,90.57
2022-12-14T11:04:39.892Z,89.89
2022-12-14T11:07:49.841Z,89.76
2022-12-14T11:11:08.095Z,89.94
2022-12-14T11:14:18.739Z,89.49
2022-12-14T11:17:37.821Z,89.18
2022-12-14T11:20:53.305Z,89.09
2022-12-14T11:24:00.098Z,88.96
2022-12-14T11:27:07.336Z,88.95
2022-12-14T11:30:19.331Z,89.19
2022-12-14T11:33:29.686Z,88.84
2022-12-14T11:36:39.515Z,88.78
2022-12-14T11:39:53.185Z,88.16
2022-12-14T11:43:04.645Z,87.88
2022-12-14T11:46:11.689Z,87.75
2022-12-14T11:49:25.964Z,87.07
2022-12-14T11:52:43.987Z,86.77
2022-12-14T11:55:55.886Z,87.23
2022-12-14T11:59:02.816Z,87.42
2022-12-14T12:02:20.652Z,87.62
2022-12-14T12:05:32.085Z,87.65
2022-12-14T12:08:40.841Z,87.55
2022-12-14T12:11:48.057Z,87.63
2022-12-14T12:14:59.572Z,87.92
2022-12-14T12:18:14.572Z,87.94
2022-12-14T12:21:26.639Z,87.77
2022-12-14T12:25:01.014Z,87.93
2022-12-14T12:28:15.926Z,87.66
2022-12-14T12:31:30.900Z,87.02
2022-12-14T12:34:44.732Z,86.64
2022-12-14T12:37:56.375Z,86.96
2022-12-14T12:41:19.945Z,86.39
2022-12-14T12:44:38.723Z,85.65
2022-12-14T12:47:50.858Z,84.72
2022-12-14T12:51:02.086Z,84.29
2022-12-14T12:54:13.006Z,83.89
2022-12-14T12:57:20.993Z,84.28
2022-12-14T13:00:30.710Z,84.24
2022-12-14T13:03:38.272Z,84.02
2022-12-14T13:06:52.302Z,83.66
2022-12-14T13:10:06.074Z,83.11
2022-12-14T13:13:18.453Z,82.91
2022-12-14T13:16:29.338Z,83.18
2022-12-14T13:19:54.631Z,83.07
2022-12-14T13:23:28.356Z,82.78
2022-12-14T13:26:57.804Z,83.31
2022-12-14T13:30:19.046Z,83.82
2022-12-14T13:33:55.195Z,83.58
2022-12-14T13:37:29.566Z,84.07
2022-12-14T13:40:48.091Z,84.15
2022-12-14T13:44:12.488Z,84.14
2022-12-14T13:47:23.380Z,84.16
2022-12-14T13:50:37.637Z,84.46
2022-12-14T13:53:55.096Z,84.75
2022-12-14T13:57:09.550Z,84.90
2022-12-14T14:00:47.658Z,85.32
2022-12-14T14:03:57.427Z,85.58
2022-12-14T14:07:34.149Z,85.71
2022-12-14T14:10:42.847Z,85.92
2022-12-14T14:14:11.176Z,85.85
2022-12-14T14:17:25.532Z,86.13
2022-12-14T14:20:41.111Z,86.37
2022-12-14T14:24:01.083Z,86.57
2022-12-14T14:27:21.012Z,86.86
2022-12-14T14:30:30.660Z,87.08
2022-12-14T14:33:46.748Z,87.19
2022-12-14T14:36:55.436Z,87.31
2022-12-14T14:40:20.679Z,87.59
2022-12-14T14:43:37.600Z,87.93
2022-12-14T14:46:48.770Z,88.08
2022-12-14T14:50:00.758Z,88.33
2022-12-14T14:53:30.758Z,88.22
2022-12-14T14:56:40.161Z,88.48
2022-12-14T14:59:53.953Z,88.66
2022-12-14T15:03:01.396Z,88.95
2022-12-14T15:06:14.837Z,88.89
2022-12-14T15:09:28.285Z,88.94
2022-12-14T15:12:40.122Z,89.07
2022-12-14T15:15:49.900Z,89.13
2022-12-14T15:19:13.540Z,89.51
2022-12-14T15:22:23.612Z,89.59
2022-12-14T15:25:34.347Z,89.89
2022-12-14T15:28:42.255Z,89.93
2022-12-14T15:31:57.622Z,89.78
2022-12-14T15:35:09.500Z,90.05
2022-12-14T15:38:25.291Z,90.24
2022-12-14T15:41:34.549Z,90.63
2022-12-14T15:44:49.557Z,90.49
2022-12-14T15:47:57.007Z,90.61
2022-12-14T15:51:06.506Z,90.72
2022-12-14T15:54:19.996Z,90.73
2022-12-14T15:57:27.178Z,90.73
2022-12-14T16:00:37.332Z,90.70
2022-12-14T16:03:45.902Z,90.57
2022-12-14T16:07:00.536Z,90.30
2022-12-14T16:10:21.217Z,90.42
2022-12-14T16:13:32.348Z,90.77
2022-12-14T16:16:39.667Z,91.00
2022-12-14T16:20:00.184Z,90.97
2022-12-14T16:23:24.586Z,90.79
2022-12-14T16:26:39.506Z,91.00
2022-12-14T16:30:04.889Z,91.17
2022-12-14T16:33:19.547Z,91.32
2022-12-14T16:36:27.129Z,91.29
2022-12-14T16:39:38.794Z,91.12
2022-12-14T16:42:47.232Z,91.35
2022-12-14T16:46:18.527Z,91.36
2022-12-14T16:49:33.083Z,91.29
2022-12-14T16:52:39.892Z,91.33
2022-12-14T16:56:05.378Z,91.29
2022-12-14T16:59:25.021Z,91.54
2022-12-14T17:02:47.831Z,91.47
2022-12-14T17:05:59.313Z,91.29
2022-12-14T17:09:08.278Z,91.49
2022-12-14T17:12:19.477Z,91.55
2022-12-14T17:15:28.378Z,91.51
2022-12-14T17:18:39.797Z,91.40
2022-12-14T17:21:46.920Z,91.31
2022-12-14T17:24:53.788Z,91.28
2022-12-14T17:28:01.680Z,91.59
2022-12-14T17:31:08.997Z,91.61
2022-12-14T17:34:15.970Z,91.58
2022-12-14T17:37:24.570Z,91.44
2022-12-14T17:40:31.525Z,91.41
2022-12-14T17:43:41.690Z,91.32
2022-12-14T17:46:56.978Z,91.17
2022-12-14T17:50:03.802Z,91.32
2022-12-14T17:53:14.710Z,91.28
2022-12-14T17:56:21.743Z,91.40
2022-12-14T17:59:28.449Z,91.54
2022-12-14T18:02:36.239Z,91.54
2022-12-14T18:05:48.657Z,91.59
2022-12-14T18:08:56.116Z,91.46
2022-12-14T18:12:25.278Z,91.50
2022-12-14T18:15:32.242Z,91.57
2022-12-14T18:18:39.399Z,91.81
2022-12-14T18:21:46.284Z,91.68
2022-12-14T18:24:54.703Z,91.67
2022-12-14T18:28:01.985Z,91.75
2022-12-14T18:31:16.306Z,91.69
2022-12-14T18:34:23.125Z,91.73
2022-12-14T18:37:32.775Z,91.81
2022-12-14T18:40:42.490Z,91.79
2022-12-14T18:43:49.615Z,91.82
2022-12-14T18:46:59.784Z,91.78
2022-12-14T18:50:13.286Z,91.80
2022-12-14T18:53:21.924Z,91.82
2022-12-14T18:56:32.900Z,91.75
2022-12-14T18:59:42.589Z,91.83
2022-12-14T19:02:50.222Z,91.87
2022-12-14T19:06:42.212Z,91.91
2022-12-14T19:09:35.150Z,91.84
2022-12-14T19:12:42.233Z,91.84
2022-12-14T19:15:49.206Z,92.02
2022-12-14T19:18:56.804Z,91.92
2022-12-14T19:22:03.680Z,91.78
2022-12-14T19:25:12.001Z,91.71
2022-12-14T19:28:34.063Z,91.70
2022-12-14T19:31:42.342Z,91.69
2022-12-14T19:34:49.167Z,91.72
2022-12-14T19:37:56.013Z,91.85
2022-12-14T19:41:07.211Z,91.79
2022-12-14T19:44:14.022Z,91.82
2022-12-14T19:47:20.635Z,91.89
2022-12-14T19:50:27.444Z,91.78
2022-12-14T19:53:35.742Z,91.81
2022-12-14T19:56:42.961Z,91.79
2022-12-14T19:59:49.916Z,91.64
2022-12-14T20:02:56.865Z,91.77
2022-12-14T20:06:04.890Z,91.77
2022-12-14T20:09:14.581Z,91.81
2022-12-14T20:12:21.374Z,91.95
2022-12-14T20:15:28.299Z,92.17
2022-12-14T20:18:35.351Z,92.39
2022-12-14T20:21:42.181Z,92.48
2022-12-14T20:24:49.768Z,92.60
2022-12-14T20:27:56.690Z,92.76
2022-12-14T20:31:05.583Z,92.66
2022-12-14T20:34:13.018Z,92.61
2022-12-14T20:37:19.813Z,92.56
2022-12-14T20:40:27.173Z,92.70
2022-12-14T20:43:37.127Z,92.90
2022-12-14T20:46:45.622Z,93.04
2022-12-14T20:49:52.599Z,93.10
2022-12-14T20:52:59.587Z,93.34
2022-12-14T20:56:08.829Z,93.51
2022-12-14T20:59:15.799Z,93.62
2022-12-14T21:02:24.826Z,93.65
2022-12-14T21:05:31.771Z,93.77
2022-12-14T21:08:52.567Z,93.81
2022-12-14T21:12:17.084Z,93.69
2022-12-14T21:15:24.011Z,93.65
2022-12-14T21:18:30.813Z,93.63
2022-12-14T21:21:37.637Z,93.58
2022-12-14T21:25:02.472Z,93.48
2022-12-14T21:28:10.830Z,93.36
2022-12-14T21:31:17.590Z,93.32
2022-12-14T21:34:28.136Z,93.47
2022-12-14T21:37:34.855Z,93.53
2022-12-14T21:40:59.679Z,93.45
2022-12-14T21:44:07.094Z,93.58
2022-12-14T21:47:16.282Z,93.65
2022-12-14T21:50:23.519Z,93.70
2022-12-14T21:53:34.994Z,93.91
2022-12-14T21:57:00.974Z,93.84
2022-12-14T22:00:10.824Z,93.31
2022-12-14T22:03:20.338Z,93.39
2022-12-14T22:06:27.765Z,93.63
2022-12-14T22:09:34.618Z,93.80
2022-12-14T22:12:41.419Z,94.04
2022-12-14T22:15:48.142Z,93.83
2022-12-14T22:18:56.380Z,93.68
2022-12-14T22:22:03.173Z,93.81
2022-12-14T22:25:10.979Z,93.85
2022-12-14T22:28:17.652Z,93.86
2022-12-14T22:31:24.474Z,94.05
2022-12-14T22:34:31.119Z,94.02
2022-12-14T22:37:37.850Z,94.00
2022-12-14T22:40:44.439Z,94.10
2022-12-14T22:43:54.739Z,94.20
2022-12-14T22:47:01.552Z,94.23
2022-12-14T22:50:10.103Z,94.29
2022-12-14T22:53:16.967Z,94.30
2022-12-14T22:56:28.084Z,94.04
2022-12-14T22:59:39.014Z,93.94
2022-12-14T23:02:48.676Z,94.09
2022-12-14T23:06:02.001Z,94.38
2022-12-14T23:09:26.865Z,94.37
2022-12-14T23:12:51.688Z,94.62
2022-12-14T23:16:15.881Z,94.49
2022-12-14T23:19:40.539Z,94.64
2022-12-14T23:23:05.085Z,94.68
2022-12-14T23:26:29.615Z,94.93
2022-12-14T23:29:54.089Z,94.93
2022-12-14T23:33:18.730Z,95.47
2022-12-14T23:36:43.667Z,95.91
2022-12-14T23:40:08.155Z,96.12
2022-12-14T23:43:35.799Z,95.95
2022-12-14T23:46:59.967Z,96.27
2022-12-14T23:50:25.639Z,96.33
2022-12-14T23:53:50.489Z,95.77
2022-12-14T23:57:15.090Z,95.20
